sensor_id;sensor_type;location;lat;lon;timestamp;temperature;humidity
59556;DHT22;45374;52.746;6.304;2023-03-04T00:02:18;6.10;99.90
59556;DHT22;45374;52.746;6.304;2023-03-04T00:04:44;6.10;99.90
59556;DHT22;45374;52.746;6.304;2023-03-04T00:07:09;6.00;99.90
59556;DHT22;45374;52.746;6.304;2023-03-04T00:09:35;6.10;99.90
59556;DHT22;45374;52.746;6.304;2023-03-04T00:12:01;6.10;99.90
59556;DHT22;45374;52.746;6.304;2023-03-04T00:14:26;6.00;99.90
59556;DHT22;45374;52.746;6.304;2023-03-04T00:16:52;6.10;99.90
59556;DHT22;45374;52.746;6.304;2023-03-04T00:19:17;6.10;99.90
59556;DHT22;45374;52.746;6.304;2023-03-04T00:21:43;6.10;99.90
59556;DHT22;45374;52.746;6.304;2023-03-04T00:24:09;6.10;99.90
59556;DHT22;45374;52.746;6.304;2023-03-04T00:26:34;6.10;99.90
59556;DHT22;45374;52.746;6.304;2023-03-04T00:29:00;6.00;99.90
59556;DHT22;45374;52.746;6.304;2023-03-04T00:31:26;6.00;99.90
59556;DHT22;45374;52.746;6.304;2023-03-04T00:33:52;6.00;99.90
59556;DHT22;45374;52.746;6.304;2023-03-04T00:36:18;6.00;99.90
59556;DHT22;45374;52.746;6.304;2023-03-04T00:38:43;6.00;99.90
59556;DHT22;45374;52.746;6.304;2023-03-04T00:41:09;6.00;99.90
59556;DHT22;45374;52.746;6.304;2023-03-04T00:43:34;6.10;99.90
59556;DHT22;45374;52.746;6.304;2023-03-04T00:46:00;6.10;99.90
59556;DHT22;45374;52.746;6.304;2023-03-04T00:48:26;6.10;99.90
59556;DHT22;45374;52.746;6.304;2023-03-04T00:50:51;6.00;99.90
59556;DHT22;45374;52.746;6.304;2023-03-04T00:53:18;6.00;99.90
59556;DHT22;45374;52.746;6.304;2023-03-04T00:55:44;6.00;99.90
59556;DHT22;45374;52.746;6.304;2023-03-04T00:58:10;6.00;99.90
59556;DHT22;45374;52.746;6.304;2023-03-04T01:00:37;6.00;99.90
59556;DHT22;45374;52.746;6.304;2023-03-04T01:03:03;6.00;99.90
59556;DHT22;45374;52.746;6.304;2023-03-04T01:05:28;6.00;99.90
59556;DHT22;45374;52.746;6.304;2023-03-04T01:07:54;6.00;99.90
59556;DHT22;45374;52.746;6.304;2023-03-04T01:10:19;6.00;99.90
59556;DHT22;45374;52.746;6.304;2023-03-04T01:12:45;5.90;99.90
59556;DHT22;45374;52.746;6.304;2023-03-04T01:15:12;5.90;99.90
59556;DHT22;45374;52.746;6.304;2023-03-04T01:17:38;5.90;99.90
59556;DHT22;45374;52.746;6.304;2023-03-04T01:20:06;5.90;99.90
59556;DHT22;45374;52.746;6.304;2023-03-04T01:22:32;6.00;99.90
59556;DHT22;45374;52.746;6.304;2023-03-04T01:24:57;6.00;99.90
59556;DHT22;45374;52.746;6.304;2023-03-04T01:27:23;5.90;99.90
59556;DHT22;45374;52.746;6.304;2023-03-04T01:29:48;5.90;99.90
59556;DHT22;45374;52.746;6.304;2023-03-04T01:32:14;6.00;99.90
59556;DHT22;45374;52.746;6.304;2023-03-04T01:34:39;6.00;99.90
59556;DHT22;45374;52.746;6.304;2023-03-04T01:37:05;6.00;99.90
59556;DHT22;45374;52.746;6.304;2023-03-04T01:39:31;5.90;99.90
59556;DHT22;45374;52.746;6.304;2023-03-04T01:41:56;5.90;99.90
59556;DHT22;45374;52.746;6.304;2023-03-04T01:44:22;5.90;99.90
59556;DHT22;45374;52.746;6.304;2023-03-04T01:46:51;5.90;99.90
59556;DHT22;45374;52.746;6.304;2023-03-04T01:49:18;5.90;99.90
59556;DHT22;45374;52.746;6.304;2023-03-04T01:51:50;5.90;99.90
59556;DHT22;45374;52.746;6.304;2023-03-04T01:54:17;5.90;99.90
59556;DHT22;45374;52.746;6.304;2023-03-04T01:56:44;5.90;99.90
59556;DHT22;45374;52.746;6.304;2023-03-04T01:59:14;5.90;99.90
59556;DHT22;45374;52.746;6.304;2023-03-04T02:01:43;5.90;99.90
59556;DHT22;45374;52.746;6.304;2023-03-04T02:04:09;5.90;99.90
59556;DHT22;45374;52.746;6.304;2023-03-04T02:06:38;5.90;99.90
59556;DHT22;45374;52.746;6.304;2023-03-04T02:09:04;5.90;99.90
59556;DHT22;45374;52.746;6.304;2023-03-04T02:11:31;5.90;99.90
59556;DHT22;45374;52.746;6.304;2023-03-04T02:13:57;5.90;99.90
59556;DHT22;45374;52.746;6.304;2023-03-04T02:16:23;5.90;99.90
59556;DHT22;45374;52.746;6.304;2023-03-04T02:18:49;5.80;99.90
59556;DHT22;45374;52.746;6.304;2023-03-04T02:21:22;5.90;99.90
59556;DHT22;45374;52.746;6.304;2023-03-04T02:26:25;5.80;99.90
59556;DHT22;45374;52.746;6.304;2023-03-04T02:28:53;5.80;99.90
59556;DHT22;45374;52.746;6.304;2023-03-04T02:33:59;5.70;99.90
59556;DHT22;45374;52.746;6.304;2023-03-04T02:36:26;5.70;99.90
59556;DHT22;45374;52.746;6.304;2023-03-04T02:38:53;5.70;99.90
59556;DHT22;45374;52.746;6.304;2023-03-04T02:41:22;5.70;99.90
59556;DHT22;45374;52.746;6.304;2023-03-04T02:43:52;5.70;99.90
59556;DHT22;45374;52.746;6.304;2023-03-04T02:46:18;5.70;99.90
59556;DHT22;45374;52.746;6.304;2023-03-04T02:48:43;5.70;99.90
59556;DHT22;45374;52.746;6.304;2023-03-04T02:51:09;5.70;99.90
59556;DHT22;45374;52.746;6.304;2023-03-04T02:53:35;5.80;99.90
59556;DHT22;45374;52.746;6.304;2023-03-04T02:56:00;5.80;99.90
59556;DHT22;45374;52.746;6.304;2023-03-04T02:58:26;5.80;99.90
59556;DHT22;45374;52.746;6.304;2023-03-04T03:00:52;5.80;99.90
59556;DHT22;45374;52.746;6.304;2023-03-04T03:03:17;5.80;99.90
59556;DHT22;45374;52.746;6.304;2023-03-04T03:05:43;5.80;99.90
59556;DHT22;45374;52.746;6.304;2023-03-04T03:08:09;5.70;99.90
59556;DHT22;45374;52.746;6.304;2023-03-04T03:10:35;5.80;99.90
59556;DHT22;45374;52.746;6.304;2023-03-04T03:13:00;5.80;99.90
59556;DHT22;45374;52.746;6.304;2023-03-04T03:15:26;5.80;99.90
59556;DHT22;45374;52.746;6.304;2023-03-04T03:17:52;5.80;99.90
59556;DHT22;45374;52.746;6.304;2023-03-04T03:20:18;5.80;99.90
59556;DHT22;45374;52.746;6.304;2023-03-04T03:22:43;5.80;99.90
59556;DHT22;45374;52.746;6.304;2023-03-04T03:25:11;5.80;99.90
59556;DHT22;45374;52.746;6.304;2023-03-04T03:27:37;5.80;99.90
59556;DHT22;45374;52.746;6.304;2023-03-04T03:30:03;5.80;99.90
59556;DHT22;45374;52.746;6.304;2023-03-04T03:32:29;5.80;99.90
59556;DHT22;45374;52.746;6.304;2023-03-04T03:34:55;5.80;99.90
59556;DHT22;45374;52.746;6.304;2023-03-04T03:37:20;5.70;99.90
59556;DHT22;45374;52.746;6.304;2023-03-04T03:39:46;5.70;99.90
59556;DHT22;45374;52.746;6.304;2023-03-04T03:42:11;5.70;99.90
59556;DHT22;45374;52.746;6.304;2023-03-04T03:44:37;5.70;99.90
59556;DHT22;45374;52.746;6.304;2023-03-04T03:47:03;5.70;99.90
59556;DHT22;45374;52.746;6.304;2023-03-04T03:49:39;5.70;99.90
59556;DHT22;45374;52.746;6.304;2023-03-04T03:52:05;5.70;99.90
59556;DHT22;45374;52.746;6.304;2023-03-04T03:54:32;5.70;99.90
59556;DHT22;45374;52.746;6.304;2023-03-04T03:56:58;5.70;99.90
59556;DHT22;45374;52.746;6.304;2023-03-04T03:59:23;5.70;99.90
59556;DHT22;45374;52.746;6.304;2023-03-04T04:01:49;5.70;99.90
59556;DHT22;45374;52.746;6.304;2023-03-04T04:04:15;5.70;99.90
59556;DHT22;45374;52.746;6.304;2023-03-04T04:06:41;5.70;99.90
59556;DHT22;45374;52.746;6.304;2023-03-04T04:09:06;5.70;99.90
59556;DHT22;45374;52.746;6.304;2023-03-04T04:11:32;5.70;99.90
59556;DHT22;45374;52.746;6.304;2023-03-04T04:13:58;5.70;99.90
59556;DHT22;45374;52.746;6.304;2023-03-04T04:16:23;5.60;99.90
59556;DHT22;45374;52.746;6.304;2023-03-04T04:18:49;5.60;99.90
59556;DHT22;45374;52.746;6.304;2023-03-04T04:21:15;5.60;99.90
59556;DHT22;45374;52.746;6.304;2023-03-04T04:23:40;5.50;99.90
59556;DHT22;45374;52.746;6.304;2023-03-04T04:26:06;5.50;99.90
59556;DHT22;45374;52.746;6.304;2023-03-04T04:28:32;5.50;99.90
59556;DHT22;45374;52.746;6.304;2023-03-04T04:30:57;5.50;99.90
59556;DHT22;45374;52.746;6.304;2023-03-04T04:33:23;5.50;99.90
59556;DHT22;45374;52.746;6.304;2023-03-04T04:35:48;5.50;99.90
59556;DHT22;45374;52.746;6.304;2023-03-04T04:38:14;5.50;99.90
59556;DHT22;45374;52.746;6.304;2023-03-04T04:40:40;5.50;99.90
59556;DHT22;45374;52.746;6.304;2023-03-04T04:43:07;5.50;99.90
59556;DHT22;45374;52.746;6.304;2023-03-04T04:45:33;5.50;99.90
59556;DHT22;45374;52.746;6.304;2023-03-04T04:47:59;5.50;99.90
59556;DHT22;45374;52.746;6.304;2023-03-04T04:50:25;5.50;99.90
59556;DHT22;45374;52.746;6.304;2023-03-04T04:52:50;5.50;99.90
59556;DHT22;45374;52.746;6.304;2023-03-04T04:55:16;5.50;99.90
59556;DHT22;45374;52.746;6.304;2023-03-04T04:57:42;5.50;99.90
59556;DHT22;45374;52.746;6.304;2023-03-04T05:00:09;5.60;99.90
59556;DHT22;45374;52.746;6.304;2023-03-04T05:02:35;5.50;99.90
59556;DHT22;45374;52.746;6.304;2023-03-04T05:05:06;5.60;99.90
59556;DHT22;45374;52.746;6.304;2023-03-04T05:07:32;5.50;99.90
59556;DHT22;45374;52.746;6.304;2023-03-04T05:09:58;5.50;99.90
59556;DHT22;45374;52.746;6.304;2023-03-04T05:12:23;5.50;99.90
59556;DHT22;45374;52.746;6.304;2023-03-04T05:14:49;5.50;99.90
59556;DHT22;45374;52.746;6.304;2023-03-04T05:17:14;5.40;99.90
59556;DHT22;45374;52.746;6.304;2023-03-04T05:19:40;5.40;99.90
59556;DHT22;45374;52.746;6.304;2023-03-04T05:22:06;5.40;99.90
59556;DHT22;45374;52.746;6.304;2023-03-04T05:24:32;5.40;99.90
59556;DHT22;45374;52.746;6.304;2023-03-04T05:26:59;5.50;99.90
59556;DHT22;45374;52.746;6.304;2023-03-04T05:29:25;5.40;99.90
59556;DHT22;45374;52.746;6.304;2023-03-04T05:31:50;5.40;99.90
59556;DHT22;45374;52.746;6.304;2023-03-04T05:34:16;5.40;99.90
59556;DHT22;45374;52.746;6.304;2023-03-04T05:36:41;5.40;99.90
59556;DHT22;45374;52.746;6.304;2023-03-04T05:39:07;5.40;99.90
59556;DHT22;45374;52.746;6.304;2023-03-04T05:41:32;5.50;99.90
59556;DHT22;45374;52.746;6.304;2023-03-04T05:43:58;5.40;99.90
59556;DHT22;45374;52.746;6.304;2023-03-04T05:46:24;5.40;99.90
59556;DHT22;45374;52.746;6.304;2023-03-04T05:48:51;5.40;99.90
59556;DHT22;45374;52.746;6.304;2023-03-04T05:51:18;5.40;99.90
59556;DHT22;45374;52.746;6.304;2023-03-04T05:53:43;5.40;99.90
59556;DHT22;45374;52.746;6.304;2023-03-04T05:56:11;5.50;99.90
59556;DHT22;45374;52.746;6.304;2023-03-04T05:58:37;5.50;99.90
59556;DHT22;45374;52.746;6.304;2023-03-04T06:01:03;5.60;99.90
59556;DHT22;45374;52.746;6.304;2023-03-04T06:03:29;5.50;99.90
59556;DHT22;45374;52.746;6.304;2023-03-04T06:05:54;5.40;99.90
59556;DHT22;45374;52.746;6.304;2023-03-04T06:08:20;5.40;99.90
59556;DHT22;45374;52.746;6.304;2023-03-04T06:10:46;5.30;99.90
59556;DHT22;45374;52.746;6.304;2023-03-04T06:13:11;5.20;99.90
59556;DHT22;45374;52.746;6.304;2023-03-04T06:15:39;5.20;99.90
59556;DHT22;45374;52.746;6.304;2023-03-04T06:18:05;5.10;99.90
59556;DHT22;45374;52.746;6.304;2023-03-04T06:20:31;5.00;99.90
59556;DHT22;45374;52.746;6.304;2023-03-04T06:22:57;4.90;99.90
59556;DHT22;45374;52.746;6.304;2023-03-04T06:25:23;5.00;99.90
59556;DHT22;45374;52.746;6.304;2023-03-04T06:27:49;5.00;99.90
59556;DHT22;45374;52.746;6.304;2023-03-04T06:30:14;5.00;99.90
59556;DHT22;45374;52.746;6.304;2023-03-04T06:32:40;4.90;99.90
59556;DHT22;45374;52.746;6.304;2023-03-04T06:35:12;4.90;99.90
59556;DHT22;45374;52.746;6.304;2023-03-04T06:37:38;5.00;99.90
59556;DHT22;45374;52.746;6.304;2023-03-04T06:40:05;5.00;99.90
59556;DHT22;45374;52.746;6.304;2023-03-04T06:42:32;5.00;99.90
59556;DHT22;45374;52.746;6.304;2023-03-04T06:44:58;5.00;99.90
59556;DHT22;45374;52.746;6.304;2023-03-04T06:47:23;5.00;99.90
59556;DHT22;45374;52.746;6.304;2023-03-04T06:49:49;5.00;99.90
59556;DHT22;45374;52.746;6.304;2023-03-04T06:52:15;5.00;99.90
59556;DHT22;45374;52.746;6.304;2023-03-04T06:54:40;5.00;99.90
59556;DHT22;45374;52.746;6.304;2023-03-04T06:57:06;5.10;99.90
59556;DHT22;45374;52.746;6.304;2023-03-04T06:59:32;5.20;99.90
59556;DHT22;45374;52.746;6.304;2023-03-04T07:01:58;5.20;99.90
59556;DHT22;45374;52.746;6.304;2023-03-04T07:04:24;5.20;99.90
59556;DHT22;45374;52.746;6.304;2023-03-04T07:06:50;5.20;99.90
59556;DHT22;45374;52.746;6.304;2023-03-04T07:09:25;5.20;99.90
59556;DHT22;45374;52.746;6.304;2023-03-04T07:11:50;5.30;99.90
59556;DHT22;45374;52.746;6.304;2023-03-04T07:14:16;5.40;99.90
59556;DHT22;45374;52.746;6.304;2023-03-04T07:16:41;5.40;99.90
59556;DHT22;45374;52.746;6.304;2023-03-04T07:19:07;5.40;99.90
59556;DHT22;45374;52.746;6.304;2023-03-04T07:21:33;5.50;99.90
59556;DHT22;45374;52.746;6.304;2023-03-04T07:23:58;5.60;99.90
59556;DHT22;45374;52.746;6.304;2023-03-04T07:26:24;5.60;99.90
59556;DHT22;45374;52.746;6.304;2023-03-04T07:28:49;5.70;99.90
59556;DHT22;45374;52.746;6.304;2023-03-04T07:31:28;5.70;99.90
59556;DHT22;45374;52.746;6.304;2023-03-04T07:34:02;5.70;99.90
59556;DHT22;45374;52.746;6.304;2023-03-04T07:36:28;5.90;99.90
59556;DHT22;45374;52.746;6.304;2023-03-04T07:38:54;5.90;99.90
59556;DHT22;45374;52.746;6.304;2023-03-04T07:41:23;5.90;99.90
59556;DHT22;45374;52.746;6.304;2023-03-04T07:43:49;5.90;99.90
59556;DHT22;45374;52.746;6.304;2023-03-04T07:46:16;5.90;99.90
59556;DHT22;45374;52.746;6.304;2023-03-04T07:48:42;5.90;99.90
59556;DHT22;45374;52.746;6.304;2023-03-04T07:53:34;5.90;99.90
59556;DHT22;45374;52.746;6.304;2023-03-04T07:55:59;6.00;99.90
59556;DHT22;45374;52.746;6.304;2023-03-04T07:58:25;6.00;99.90
59556;DHT22;45374;52.746;6.304;2023-03-04T08:00:51;6.10;99.90
59556;DHT22;45374;52.746;6.304;2023-03-04T08:03:17;6.10;99.90
59556;DHT22;45374;52.746;6.304;2023-03-04T08:05:42;6.10;99.90
59556;DHT22;45374;52.746;6.304;2023-03-04T08:08:08;6.10;99.90
59556;DHT22;45374;52.746;6.304;2023-03-04T08:10:34;6.20;99.90
59556;DHT22;45374;52.746;6.304;2023-03-04T08:13:00;6.20;99.90
59556;DHT22;45374;52.746;6.304;2023-03-04T08:15:26;6.20;99.90
59556;DHT22;45374;52.746;6.304;2023-03-04T08:17:52;6.30;99.90
59556;DHT22;45374;52.746;6.304;2023-03-04T08:20:18;6.40;99.90
59556;DHT22;45374;52.746;6.304;2023-03-04T08:22:43;6.30;99.90
59556;DHT22;45374;52.746;6.304;2023-03-04T08:25:09;6.40;99.90
59556;DHT22;45374;52.746;6.304;2023-03-04T08:27:35;6.30;99.90
59556;DHT22;45374;52.746;6.304;2023-03-04T08:30:03;6.30;99.90
59556;DHT22;45374;52.746;6.304;2023-03-04T08:32:29;6.40;99.90
59556;DHT22;45374;52.746;6.304;2023-03-04T08:34:54;6.30;99.90
59556;DHT22;45374;52.746;6.304;2023-03-04T08:37:21;6.40;99.90
59556;DHT22;45374;52.746;6.304;2023-03-04T08:39:47;6.40;99.90
59556;DHT22;45374;52.746;6.304;2023-03-04T08:42:12;6.50;99.90
59556;DHT22;45374;52.746;6.304;2023-03-04T08:44:38;6.50;99.90
59556;DHT22;45374;52.746;6.304;2023-03-04T08:47:04;6.70;99.90
59556;DHT22;45374;52.746;6.304;2023-03-04T08:49:30;6.70;99.90
59556;DHT22;45374;52.746;6.304;2023-03-04T08:51:55;6.80;99.90
59556;DHT22;45374;52.746;6.304;2023-03-04T08:54:21;6.80;99.90
59556;DHT22;45374;52.746;6.304;2023-03-04T08:56:46;6.90;99.90
59556;DHT22;45374;52.746;6.304;2023-03-04T08:59:12;6.90;99.90
59556;DHT22;45374;52.746;6.304;2023-03-04T09:01:37;6.90;99.90
59556;DHT22;45374;52.746;6.304;2023-03-04T09:04:03;7.00;99.90
59556;DHT22;45374;52.746;6.304;2023-03-04T09:06:29;7.10;99.90
59556;DHT22;45374;52.746;6.304;2023-03-04T09:08:54;7.10;99.90
59556;DHT22;45374;52.746;6.304;2023-03-04T09:11:20;7.10;99.90
59556;DHT22;45374;52.746;6.304;2023-03-04T09:13:46;7.20;99.90
59556;DHT22;45374;52.746;6.304;2023-03-04T09:16:13;7.30;99.90
59556;DHT22;45374;52.746;6.304;2023-03-04T09:18:40;7.40;99.90
59556;DHT22;45374;52.746;6.304;2023-03-04T09:21:06;7.50;99.90
59556;DHT22;45374;52.746;6.304;2023-03-04T09:23:33;7.50;99.90
59556;DHT22;45374;52.746;6.304;2023-03-04T09:25:59;7.40;99.90
59556;DHT22;45374;52.746;6.304;2023-03-04T09:28:24;7.40;99.90
59556;DHT22;45374;52.746;6.304;2023-03-04T09:30:50;7.40;99.90
59556;DHT22;45374;52.746;6.304;2023-03-04T09:33:16;7.40;99.90
59556;DHT22;45374;52.746;6.304;2023-03-04T09:35:43;7.40;99.90
59556;DHT22;45374;52.746;6.304;2023-03-04T09:38:09;7.30;99.90
59556;DHT22;45374;52.746;6.304;2023-03-04T09:40:47;7.30;99.90
59556;DHT22;45374;52.746;6.304;2023-03-04T09:43:24;7.30;99.90
59556;DHT22;45374;52.746;6.304;2023-03-04T09:45:56;7.40;99.90
59556;DHT22;45374;52.746;6.304;2023-03-04T09:48:24;7.50;99.90
59556;DHT22;45374;52.746;6.304;2023-03-04T09:56:10;7.60;99.90
59556;DHT22;45374;52.746;6.304;2023-03-04T09:58:46;7.60;99.90
59556;DHT22;45374;52.746;6.304;2023-03-04T10:01:39;7.60;99.90
59556;DHT22;45374;52.746;6.304;2023-03-04T10:04:36;7.60;99.90
59556;DHT22;45374;52.746;6.304;2023-03-04T10:07:12;7.50;99.90
59556;DHT22;45374;52.746;6.304;2023-03-04T10:09:45;7.50;99.90
59556;DHT22;45374;52.746;6.304;2023-03-04T10:12:14;7.50;99.90
59556;DHT22;45374;52.746;6.304;2023-03-04T10:14:59;7.40;99.90
59556;DHT22;45374;52.746;6.304;2023-03-04T10:17:37;7.40;99.90
59556;DHT22;45374;52.746;6.304;2023-03-04T10:20:26;7.40;99.90
59556;DHT22;45374;52.746;6.304;2023-03-04T10:23:00;7.40;99.90
59556;DHT22;45374;52.746;6.304;2023-03-04T10:25:29;7.30;99.90
59556;DHT22;45374;52.746;6.304;2023-03-04T10:27:58;7.40;99.90
59556;DHT22;45374;52.746;6.304;2023-03-04T10:33:01;7.30;99.90
59556;DHT22;45374;52.746;6.304;2023-03-04T10:35:32;7.40;99.90
59556;DHT22;45374;52.746;6.304;2023-03-04T10:38:00;7.40;99.90
59556;DHT22;45374;52.746;6.304;2023-03-04T10:40:26;7.40;99.90
59556;DHT22;45374;52.746;6.304;2023-03-04T10:42:52;7.40;99.90
59556;DHT22;45374;52.746;6.304;2023-03-04T10:45:24;7.40;99.90
59556;DHT22;45374;52.746;6.304;2023-03-04T10:47:54;7.40;99.90
59556;DHT22;45374;52.746;6.304;2023-03-04T10:50:23;7.50;99.90
59556;DHT22;45374;52.746;6.304;2023-03-04T10:52:50;7.50;99.90
59556;DHT22;45374;52.746;6.304;2023-03-04T10:55:29;7.50;99.90
59556;DHT22;45374;52.746;6.304;2023-03-04T10:58:05;7.60;99.90
59556;DHT22;45374;52.746;6.304;2023-03-04T11:00:32;7.70;99.90
59556;DHT22;45374;52.746;6.304;2023-03-04T11:06:21;7.90;99.90
59556;DHT22;45374;52.746;6.304;2023-03-04T11:08:55;7.90;99.90
59556;DHT22;45374;52.746;6.304;2023-03-04T11:11:31;7.90;99.90
59556;DHT22;45374;52.746;6.304;2023-03-04T11:14:10;7.90;99.90
59556;DHT22;45374;52.746;6.304;2023-03-04T11:16:39;7.90;99.90
59556;DHT22;45374;52.746;6.304;2023-03-04T11:19:12;7.90;99.90
59556;DHT22;45374;52.746;6.304;2023-03-04T11:21:39;7.90;99.90
59556;DHT22;45374;52.746;6.304;2023-03-04T11:24:13;8.10;99.90
59556;DHT22;45374;52.746;6.304;2023-03-04T11:26:52;8.20;99.90
59556;DHT22;45374;52.746;6.304;2023-03-04T11:29:30;8.10;99.90
59556;DHT22;45374;52.746;6.304;2023-03-04T11:32:24;8.10;99.90
59556;DHT22;45374;52.746;6.304;2023-03-04T11:38:06;8.00;99.90
59556;DHT22;45374;52.746;6.304;2023-03-04T11:40:42;7.90;99.90
59556;DHT22;45374;52.746;6.304;2023-03-04T11:43:16;7.80;99.90
59556;DHT22;45374;52.746;6.304;2023-03-04T11:50:57;7.60;99.90
59556;DHT22;45374;52.746;6.304;2023-03-04T11:59:10;7.50;99.90
59556;DHT22;45374;52.746;6.304;2023-03-04T12:20:37;7.80;99.90
59556;DHT22;45374;52.746;6.304;2023-03-04T12:23:19;7.90;99.90
59556;DHT22;45374;52.746;6.304;2023-03-04T12:26:16;8.00;99.90
59556;DHT22;45374;52.746;6.304;2023-03-04T12:31:42;7.90;99.90
59556;DHT22;45374;52.746;6.304;2023-03-04T12:34:37;7.80;99.90
59556;DHT22;45374;52.746;6.304;2023-03-04T12:39:44;7.90;99.90
59556;DHT22;45374;52.746;6.304;2023-03-04T12:47:47;8.30;99.90
59556;DHT22;45374;52.746;6.304;2023-03-04T12:53:07;8.20;99.90
59556;DHT22;45374;52.746;6.304;2023-03-04T12:55:37;8.20;99.90
59556;DHT22;45374;52.746;6.304;2023-03-04T12:58:05;8.10;99.90
59556;DHT22;45374;52.746;6.304;2023-03-04T13:03:23;8.00;99.90
59556;DHT22;45374;52.746;6.304;2023-03-04T13:11:49;7.80;99.90
59556;DHT22;45374;52.746;6.304;2023-03-04T13:16:48;7.70;99.90
59556;DHT22;45374;52.746;6.304;2023-03-04T13:22:32;8.00;99.90
59556;DHT22;45374;52.746;6.304;2023-03-04T13:25:03;8.10;99.90
59556;DHT22;45374;52.746;6.304;2023-03-04T13:38:33;7.90;99.90
59556;DHT22;45374;52.746;6.304;2023-03-04T13:41:22;7.70;99.90
59556;DHT22;45374;52.746;6.304;2023-03-04T13:43:57;7.60;99.90
59556;DHT22;45374;52.746;6.304;2023-03-04T13:51:39;7.50;99.90
59556;DHT22;45374;52.746;6.304;2023-03-04T13:54:20;7.60;99.90
59556;DHT22;45374;52.746;6.304;2023-03-04T13:59:40;8.00;99.90
59556;DHT22;45374;52.746;6.304;2023-03-04T14:02:09;8.20;99.90
59556;DHT22;45374;52.746;6.304;2023-03-04T14:04:38;8.30;99.90
59556;DHT22;45374;52.746;6.304;2023-03-04T14:12:44;7.80;99.90
59556;DHT22;45374;52.746;6.304;2023-03-04T14:17:43;7.60;99.90
59556;DHT22;45374;52.746;6.304;2023-03-04T14:22:52;7.50;99.90
59556;DHT22;45374;52.746;6.304;2023-03-04T14:27:44;7.40;99.90
59556;DHT22;45374;52.746;6.304;2023-03-04T14:30:29;7.40;99.90
59556;DHT22;45374;52.746;6.304;2023-03-04T14:32:57;7.40;99.90
59556;DHT22;45374;52.746;6.304;2023-03-04T14:35:29;7.40;99.90
59556;DHT22;45374;52.746;6.304;2023-03-04T14:38:34;7.40;99.90
59556;DHT22;45374;52.746;6.304;2023-03-04T14:41:15;7.50;99.90
59556;DHT22;45374;52.746;6.304;2023-03-04T14:43:58;7.40;99.90
59556;DHT22;45374;52.746;6.304;2023-03-04T14:46:30;7.40;99.90
59556;DHT22;45374;52.746;6.304;2023-03-04T14:48:57;7.40;99.90
59556;DHT22;45374;52.746;6.304;2023-03-04T14:51:52;7.40;99.90
59556;DHT22;45374;52.746;6.304;2023-03-04T14:54:32;7.40;99.90
59556;DHT22;45374;52.746;6.304;2023-03-04T14:57:01;7.50;99.90
59556;DHT22;45374;52.746;6.304;2023-03-04T14:59:39;7.50;99.90
59556;DHT22;45374;52.746;6.304;2023-03-04T15:02:29;7.50;99.90
59556;DHT22;45374;52.746;6.304;2023-03-04T15:05:06;7.50;99.90
59556;DHT22;45374;52.746;6.304;2023-03-04T15:07:34;7.50;99.90
59556;DHT22;45374;52.746;6.304;2023-03-04T15:10:02;7.50;99.90
59556;DHT22;45374;52.746;6.304;2023-03-04T15:12:31;7.40;99.90
59556;DHT22;45374;52.746;6.304;2023-03-04T15:14:59;7.40;99.90
59556;DHT22;45374;52.746;6.304;2023-03-04T15:17:39;7.40;99.90
59556;DHT22;45374;52.746;6.304;2023-03-04T15:22:34;7.30;99.90
59556;DHT22;45374;52.746;6.304;2023-03-04T15:25:00;7.30;99.90
59556;DHT22;45374;52.746;6.304;2023-03-04T15:27:27;7.20;99.90
59556;DHT22;45374;52.746;6.304;2023-03-04T15:29:55;7.20;99.90
59556;DHT22;45374;52.746;6.304;2023-03-04T15:32:27;7.10;99.90
59556;DHT22;45374;52.746;6.304;2023-03-04T15:34:54;7.00;99.90
59556;DHT22;45374;52.746;6.304;2023-03-04T15:37:25;6.90;99.90
59556;DHT22;45374;52.746;6.304;2023-03-04T15:39:52;6.80;99.90
59556;DHT22;45374;52.746;6.304;2023-03-04T15:42:18;6.70;99.90
59556;DHT22;45374;52.746;6.304;2023-03-04T15:44:44;6.70;99.90
59556;DHT22;45374;52.746;6.304;2023-03-04T15:47:10;6.70;99.90
59556;DHT22;45374;52.746;6.304;2023-03-04T15:49:39;6.70;99.90
59556;DHT22;45374;52.746;6.304;2023-03-04T15:52:12;6.60;99.90
59556;DHT22;45374;52.746;6.304;2023-03-04T15:54:39;6.60;99.90
59556;DHT22;45374;52.746;6.304;2023-03-04T15:57:19;6.50;99.90
59556;DHT22;45374;52.746;6.304;2023-03-04T15:59:45;6.50;99.90
59556;DHT22;45374;52.746;6.304;2023-03-04T16:02:19;6.40;99.90
59556;DHT22;45374;52.746;6.304;2023-03-04T16:04:44;6.30;99.90
59556;DHT22;45374;52.746;6.304;2023-03-04T16:07:23;6.20;99.90
59556;DHT22;45374;52.746;6.304;2023-03-04T16:09:58;6.20;99.90
59556;DHT22;45374;52.746;6.304;2023-03-04T16:12:25;6.20;99.90
59556;DHT22;45374;52.746;6.304;2023-03-04T16:14:51;6.20;99.90
59556;DHT22;45374;52.746;6.304;2023-03-04T16:17:17;6.20;99.90
59556;DHT22;45374;52.746;6.304;2023-03-04T16:19:44;6.10;99.90
59556;DHT22;45374;52.746;6.304;2023-03-04T16:22:14;6.10;99.90
59556;DHT22;45374;52.746;6.304;2023-03-04T16:24:42;6.00;99.90
59556;DHT22;45374;52.746;6.304;2023-03-04T16:27:13;6.00;99.90
59556;DHT22;45374;52.746;6.304;2023-03-04T16:29:39;6.00;99.90
59556;DHT22;45374;52.746;6.304;2023-03-04T16:32:05;6.00;99.90
59556;DHT22;45374;52.746;6.304;2023-03-04T16:34:31;5.90;99.90
59556;DHT22;45374;52.746;6.304;2023-03-04T16:36:57;6.00;99.90
59556;DHT22;45374;52.746;6.304;2023-03-04T16:39:24;6.00;99.90
59556;DHT22;45374;52.746;6.304;2023-03-04T16:41:51;6.10;99.90
59556;DHT22;45374;52.746;6.304;2023-03-04T16:44:17;6.00;99.90
59556;DHT22;45374;52.746;6.304;2023-03-04T16:46:42;5.90;99.90
59556;DHT22;45374;52.746;6.304;2023-03-04T16:49:08;6.00;99.90
59556;DHT22;45374;52.746;6.304;2023-03-04T16:51:39;5.90;99.90
59556;DHT22;45374;52.746;6.304;2023-03-04T16:54:16;5.90;99.90
59556;DHT22;45374;52.746;6.304;2023-03-04T16:56:42;5.80;99.90
59556;DHT22;45374;52.746;6.304;2023-03-04T16:59:14;5.80;99.90
59556;DHT22;45374;52.746;6.304;2023-03-04T17:01:40;5.80;99.90
59556;DHT22;45374;52.746;6.304;2023-03-04T17:04:06;5.70;99.90
59556;DHT22;45374;52.746;6.304;2023-03-04T17:06:31;5.70;99.90
59556;DHT22;45374;52.746;6.304;2023-03-04T17:08:58;5.70;99.90
59556;DHT22;45374;52.746;6.304;2023-03-04T17:11:24;5.70;99.90
59556;DHT22;45374;52.746;6.304;2023-03-04T17:13:51;5.60;99.90
59556;DHT22;45374;52.746;6.304;2023-03-04T17:16:16;5.60;99.90
59556;DHT22;45374;52.746;6.304;2023-03-04T17:18:42;5.60;99.90
59556;DHT22;45374;52.746;6.304;2023-03-04T17:21:12;5.50;99.90
59556;DHT22;45374;52.746;6.304;2023-03-04T17:23:38;5.50;99.90
59556;DHT22;45374;52.746;6.304;2023-03-04T17:26:04;5.50;99.90
59556;DHT22;45374;52.746;6.304;2023-03-04T17:28:30;5.50;99.90
59556;DHT22;45374;52.746;6.304;2023-03-04T17:30:56;5.60;99.90
59556;DHT22;45374;52.746;6.304;2023-03-04T17:33:22;5.60;99.90
59556;DHT22;45374;52.746;6.304;2023-03-04T17:35:48;5.50;99.90
59556;DHT22;45374;52.746;6.304;2023-03-04T17:38:14;5.50;99.90
59556;DHT22;45374;52.746;6.304;2023-03-04T17:40:40;5.50;99.90
59556;DHT22;45374;52.746;6.304;2023-03-04T17:43:06;5.40;99.90
59556;DHT22;45374;52.746;6.304;2023-03-04T17:45:42;5.40;99.90
59556;DHT22;45374;52.746;6.304;2023-03-04T17:48:09;5.30;99.90